METAR

Letisková meteorologická správa METAR

Meteorologické informácie z ďalších profesionálnych meteorologických staníc SHMÚ zobrazené v tvare zodpovedajúcom pravidlám kódovania správ METAR sú uvedené v položke „METSYN

Informácie o správe METAR

23.01.2020 - 06:00 UTC

METAR LZIB 230600Z VRB02KT 9999 SCT035 00/M02 Q1035 R13/CLRD//
NOSIG=
METAR LZKZ 230600Z VRB02KT 9999 3000S BCFG SCT047 M04/M05 Q1033
TEMPO 2000 BR BCFG=
METAR LZPP 230600Z 03007KT 9000 FEW040 M01/M03 Q1035=
METAR LZSL 230600Z VRB01KT CAVOK M07/M09 Q1033=
METAR LZTT 230600Z 25006KT 9999 FEW046 M07/M09 Q1030 NOSIG=
METAR LZZI 230600Z VRB01KT 3000 BR SCT037 M03/M04 Q1034=

23.01.2020 - 05:30 UTC

METAR LZIB 230530Z 01004KT 9999 FEW040 M00/M02 Q1035 R13/CLRD//
NOSIG=
METAR LZKZ 230530Z VRB02KT 9999 2500S BCFG SCT049 M05/M06 Q1033
TEMPO 2000 BR BCFG=
METAR LZPP 230530Z 04006KT 9999 FEW040 M01/M03 Q1035=
METAR LZSL 230530Z VRB01KT CAVOK M07/M09 Q1032=
METAR LZTT 230530Z 26004KT 220V290 9999 FEW046 M08/M10 Q1030 NOSIG=
METAR LZZI 230530Z 25003KT 220V290 3800 BR BKN036 M04/M04 Q1034=

23.01.2020 - 06:00 UTC

METAR LZMC 230600Z 18002KT 3500 BCFG BR BKN034 M04/M04
Q1036=
METAR LZPW 230600Z 23004KT 9999 BKN040 01/M04 Q1032=

skok na menu ↑


skok na začiatok stránky ↑